Flugplatz Dahlemer Binz

Für EDKV sind keine METAR/TAF Berichte vorhanden.
Es werden die Flugwettermeldungen vom Flugplatz Buchel Airport in 45 km Entfernung angezeigt.

Bericht für ETSB

vom 31.05. um 03:20 UTC

Wind 6 kt aus 40°

Sichtweite 10 km oder mehr

Temperatur 10.0°C

Taupunkt 2.0°C

Luftfeuchtigkeit 57%

Luftdruck 1021 hPa

ETSB 310320Z AUTO 04006KT 9999 // ////// 10/02 Q1021 ///
Keine Prognose (TAF) verfügbar.
Impressum